createdAt,value
2023-04-22T00:00:21.840Z,151233.03
2023-04-22T00:02:48.133Z,151229.25
2023-04-22T00:05:20.295Z,151228.00
2023-04-22T00:07:46.780Z,151235.56
2023-04-22T00:10:12.960Z,151245.69
2023-04-22T00:12:38.761Z,151238.09
2023-04-22T00:15:05.376Z,151245.69
2023-04-22T00:17:32.246Z,151249.50
2023-04-22T00:19:58.519Z,151236.81
2023-04-22T00:22:24.412Z,151254.53
2023-04-22T00:24:50.183Z,151268.47
2023-04-22T00:27:15.945Z,151265.94
2023-04-22T00:29:41.746Z,151259.59
2023-04-22T00:32:07.527Z,151252.00
2023-04-22T00:34:33.346Z,151260.84
2023-04-22T00:36:59.272Z,151279.88
2023-04-22T00:39:25.172Z,151271.00
2023-04-22T00:41:51.523Z,151273.50
2023-04-22T00:44:17.760Z,151288.72
2023-04-22T00:46:46.763Z,151284.91
2023-04-22T00:49:13.878Z,151301.38
2023-04-22T00:51:42.716Z,151291.22
2023-04-22T00:54:08.535Z,151295.03
2023-04-22T00:56:37.921Z,151288.72
2023-04-22T00:59:03.898Z,151273.50
2023-04-22T01:01:29.820Z,151281.13
2023-04-22T01:03:56.665Z,151259.59
2023-04-22T01:06:23.640Z,151265.94
2023-04-22T01:08:49.697Z,151279.88
2023-04-22T01:11:15.428Z,151274.78
2023-04-22T01:13:41.460Z,151258.31
2023-04-22T01:16:08.335Z,151263.41
2023-04-22T01:18:36.960Z,151263.41
2023-04-22T01:21:03.117Z,151254.53
2023-04-22T01:23:29.537Z,151252.00
2023-04-22T01:25:56.478Z,151243.19
2023-04-22T01:28:22.793Z,151240.59
2023-04-22T01:30:49.070Z,151249.50
2023-04-22T01:33:15.937Z,151245.69
2023-04-22T01:35:42.439Z,151234.31
2023-04-22T01:38:10.625Z,151246.97
2023-04-22T01:40:37.631Z,151231.78
2023-04-22T01:43:03.694Z,151235.56
2023-04-22T01:45:29.514Z,151231.78
2023-04-22T01:47:55.424Z,151215.31
2023-04-22T01:50:22.109Z,151219.09
2023-04-22T01:52:48.173Z,151228.00
2023-04-22T01:55:14.709Z,151233.03
2023-04-22T01:57:40.856Z,151243.19
2023-04-22T02:00:07.729Z,151238.09
2023-04-22T02:02:33.908Z,151243.19
2023-04-22T02:04:59.853Z,151231.78
2023-04-22T02:07:25.703Z,151259.59
2023-04-22T02:09:51.732Z,151253.28
2023-04-22T02:12:17.508Z,151248.22
2023-04-22T02:14:43.333Z,151277.31
2023-04-22T02:17:10.084Z,151277.31
2023-04-22T02:19:35.882Z,151260.84
2023-04-22T02:22:01.822Z,151281.13
2023-04-22T02:24:27.697Z,151283.66
2023-04-22T02:26:53.455Z,151287.44
2023-04-22T02:29:19.307Z,151308.94
2023-04-22T02:31:45.124Z,151311.47
2023-04-22T02:34:10.914Z,151288.72
2023-04-22T02:36:38.801Z,151321.63
2023-04-22T02:39:07.375Z,151301.38
2023-04-22T02:41:33.250Z,151293.75
2023-04-22T02:43:58.995Z,151291.22
2023-04-22T02:46:24.885Z,151296.28
2023-04-22T02:48:50.758Z,151301.38
2023-04-22T02:51:16.572Z,151281.13
2023-04-22T02:53:42.462Z,151291.22
2023-04-22T02:56:08.462Z,151295.03
2023-04-22T02:58:34.464Z,151293.75
2023-04-22T03:01:00.489Z,151284.91
2023-04-22T03:03:26.578Z,151325.41
2023-04-22T03:05:52.730Z,151283.66
2023-04-22T03:08:19.293Z,151306.41
2023-04-22T03:10:45.370Z,151305.16
2023-04-22T03:13:12.942Z,151291.22
2023-04-22T03:15:40.619Z,151308.94
2023-04-22T03:18:06.901Z,151306.41
2023-04-22T03:20:33.107Z,151300.13
2023-04-22T03:22:58.907Z,151310.22
2023-04-22T03:25:24.894Z,151327.94
2023-04-22T03:27:50.760Z,151331.72
2023-04-22T03:30:16.710Z,151319.09
2023-04-22T03:32:42.507Z,151315.31
2023-04-22T03:35:08.509Z,151306.41
2023-04-22T03:37:34.321Z,151329.19
2023-04-22T03:40:00.131Z,151325.41
2023-04-22T03:42:25.946Z,151352.00
2023-04-22T03:44:52.204Z,151327.94
2023-04-22T03:47:18.111Z,151329.19
2023-04-22T03:49:44.594Z,151306.41
2023-04-22T03:52:10.419Z,151315.31
2023-04-22T03:54:36.278Z,151308.94
2023-04-22T03:57:02.193Z,151303.91
2023-04-22T03:59:28.078Z,151314.00
2023-04-22T04:01:53.926Z,151320.34
2023-04-22T04:04:20.233Z,151326.66
2023-04-22T04:06:46.327Z,151319.09
2023-04-22T04:09:12.260Z,151332.97
2023-04-22T04:11:38.041Z,151339.34
2023-04-22T04:14:03.811Z,151321.63
2023-04-22T04:16:29.815Z,151312.72
2023-04-22T04:18:55.649Z,151312.72
2023-04-22T04:21:21.449Z,151340.59
2023-04-22T04:23:47.404Z,151312.72
2023-04-22T04:26:14.403Z,151322.88
2023-04-22T04:28:40.912Z,151338.06
2023-04-22T04:31:09.255Z,151341.84
2023-04-22T04:33:36.241Z,151319.09
2023-04-22T04:36:02.432Z,151350.69
2023-04-22T04:38:28.342Z,151358.38
2023-04-22T04:40:54.188Z,151335.53
2023-04-22T04:43:20.506Z,151353.28
2023-04-22T04:45:48.515Z,151376.09
2023-04-22T04:48:15.872Z,151383.66
2023-04-22T04:50:42.462Z,151362.16
2023-04-22T04:53:09.785Z,151363.41
2023-04-22T04:55:36.160Z,151367.19
2023-04-22T04:58:02.156Z,151352.00
2023-04-22T05:00:28.123Z,151371.03
2023-04-22T05:02:53.971Z,151367.19
2023-04-22T05:05:19.910Z,151393.81
2023-04-22T05:07:45.883Z,151374.81
2023-04-22T05:10:11.873Z,151403.91
2023-04-22T05:12:37.980Z,151422.88
2023-04-22T05:15:04.524Z,151420.38
2023-04-22T05:17:30.941Z,151406.47
2023-04-22T05:19:56.875Z,151407.75
2023-04-22T05:22:23.151Z,151416.56
2023-04-22T05:24:48.971Z,151419.09
2023-04-22T05:27:14.917Z,151434.31
2023-04-22T05:29:40.996Z,151440.63
2023-04-22T05:32:08.172Z,151458.34
2023-04-22T05:34:34.978Z,151471.00
2023-04-22T05:37:04.154Z,151471.00
2023-04-22T05:39:30.037Z,151440.63
2023-04-22T05:41:55.862Z,151448.25
2023-04-22T05:44:21.636Z,151476.06
2023-04-22T05:46:47.437Z,151464.69
2023-04-22T05:49:13.322Z,151469.75
2023-04-22T05:51:39.147Z,151478.63
2023-04-22T05:54:05.197Z,151473.53
2023-04-22T05:56:31.231Z,151497.63
2023-04-22T05:58:57.046Z,151511.50
2023-04-22T06:01:24.118Z,151493.78
2023-04-22T06:03:50.405Z,151497.63
2023-04-22T06:06:17.205Z,151535.59
2023-04-22T06:08:43.126Z,151548.25
2023-04-22T06:11:09.498Z,151568.53
2023-04-22T06:13:35.311Z,151563.44
2023-04-22T06:16:01.596Z,151596.38
2023-04-22T06:18:28.361Z,151643.25
2023-04-22T06:20:55.070Z,151623.00
2023-04-22T06:23:20.981Z,151624.25
2023-04-22T06:25:46.808Z,151623.00
2023-04-22T06:28:12.686Z,151664.78
2023-04-22T06:30:38.474Z,151617.91
2023-04-22T06:33:04.321Z,151620.44
2023-04-22T06:35:30.827Z,151677.47
2023-04-22T06:37:56.688Z,151701.53
2023-04-22T06:40:22.516Z,151681.25
2023-04-22T06:42:48.300Z,151687.56
2023-04-22T06:45:14.204Z,151677.47
2023-04-22T06:47:40.234Z,151690.09
2023-04-22T06:50:08.053Z,151664.78
2023-04-22T06:52:34.692Z,151676.19
2023-04-22T06:55:02.524Z,151705.31
2023-04-22T06:57:29.191Z,151700.25
2023-04-22T06:59:55.290Z,151748.47
2023-04-22T07:02:21.454Z,151757.31
2023-04-22T07:04:47.484Z,151758.56
2023-04-22T07:07:13.480Z,151753.53
2023-04-22T07:09:39.558Z,151783.94
2023-04-22T07:12:05.722Z,151806.75
2023-04-22T07:14:32.359Z,151854.88
2023-04-22T07:16:58.798Z,151879.00
2023-04-22T07:19:24.857Z,151903.06
2023-04-22T07:21:50.736Z,151928.44
2023-04-22T07:24:16.566Z,151928.44
2023-04-22T07:26:43.697Z,151961.34
2023-04-22T07:29:10.578Z,151970.25
2023-04-22T07:31:36.445Z,151967.72
2023-04-22T07:34:02.590Z,151998.13
2023-04-22T07:36:28.445Z,152031.09
2023-04-22T07:38:54.376Z,152042.53
2023-04-22T07:41:20.222Z,152041.28
2023-04-22T07:43:46.008Z,152023.53
2023-04-22T07:46:11.866Z,152027.31
2023-04-22T07:48:37.715Z,152000.72
2023-04-22T07:51:03.800Z,151979.13
2023-04-22T07:53:29.642Z,151949.97
2023-04-22T07:55:55.556Z,151932.22
2023-04-22T07:58:21.372Z,151953.78
2023-04-22T08:00:47.176Z,151991.81
2023-04-22T08:03:13.731Z,152008.28
2023-04-22T08:05:39.831Z,152041.28
2023-04-22T08:08:05.957Z,152072.97
2023-04-22T08:10:31.961Z,152078.03
2023-04-22T08:12:57.821Z,152112.34
2023-04-22T08:15:23.712Z,152130.09
2023-04-22T08:17:49.750Z,152135.16
2023-04-22T08:20:17.309Z,152164.34
2023-04-22T08:22:44.101Z,152196.03
2023-04-22T08:25:10.125Z,152220.19
2023-04-22T08:27:37.174Z,152240.47
2023-04-22T08:30:04.295Z,152243.00
2023-04-22T08:32:30.106Z,152288.69
2023-04-22T08:35:03.801Z,152305.16
2023-04-22T08:37:31.083Z,152339.44
2023-04-22T08:39:56.933Z,152330.56
2023-04-22T08:42:22.861Z,152341.97
2023-04-22T08:44:49.634Z,152399.13
2023-04-22T08:47:16.360Z,152424.53
2023-04-22T08:49:43.380Z,152433.44
2023-04-22T08:52:10.966Z,152465.16
2023-04-22T08:54:37.151Z,152496.91
2023-04-22T08:57:04.652Z,152559.09
2023-04-22T08:59:31.043Z,152562.94
2023-04-22T09:01:57.965Z,152556.56
2023-04-22T09:04:24.303Z,152576.88
2023-04-22T09:06:50.273Z,152603.59
2023-04-22T09:09:16.737Z,152590.88
2023-04-22T09:11:42.716Z,152613.75
2023-04-22T09:14:08.487Z,152622.63
2023-04-22T09:16:42.297Z,152683.59
2023-04-22T09:19:11.412Z,152693.75
2023-04-22T09:21:37.329Z,152684.84
2023-04-22T09:24:03.192Z,152667.06
2023-04-22T09:26:30.245Z,152646.75
2023-04-22T09:28:58.189Z,152642.94
2023-04-22T09:31:24.976Z,152632.81
2023-04-22T09:33:53.874Z,152710.34
2023-04-22T09:36:36.836Z,152706.53
2023-04-22T09:39:06.691Z,152737.00
2023-04-22T09:41:34.908Z,152748.44
2023-04-22T09:44:02.354Z,152728.13
2023-04-22T09:46:32.977Z,152770.03
2023-04-22T09:48:59.833Z,152767.50
2023-04-22T09:51:27.333Z,152739.53
2023-04-22T09:54:09.477Z,152801.81
2023-04-22T09:56:52.970Z,152784.03
2023-04-22T09:59:27.448Z,152799.28
2023-04-22T10:01:57.870Z,152824.69
2023-04-22T10:04:25.088Z,152864.06
2023-04-22T10:06:52.133Z,152940.38
2023-04-22T10:09:19.827Z,152931.44
2023-04-22T10:11:46.691Z,153001.44
2023-04-22T10:14:15.420Z,153075.19
2023-04-22T10:16:45.060Z,153156.59
2023-04-22T10:19:16.036Z,153260.94
2023-04-22T10:21:45.003Z,153360.22
2023-04-22T10:24:17.053Z,153347.47
2023-04-22T10:26:58.852Z,153238.03
2023-04-22T10:29:36.224Z,153209.97
2023-04-22T10:32:10.791Z,153178.22
2023-04-22T10:34:39.926Z,153190.91
2023-04-22T10:37:08.653Z,153208.72
2023-04-22T10:39:34.842Z,153333.47
2023-04-22T10:42:10.742Z,153498.97
2023-04-22T10:45:03.877Z,153495.16
2023-04-22T10:47:33.991Z,153444.19
2023-04-22T10:50:09.758Z,153344.94
2023-04-22T10:52:35.723Z,153364.00
2023-04-22T10:55:02.730Z,153328.38
2023-04-22T10:57:37.048Z,153243.13
2023-04-22T11:00:21.913Z,153151.47
2023-04-22T11:03:11.221Z,153132.41
2023-04-22T11:05:38.155Z,153089.19
2023-04-22T11:08:07.758Z,153206.19
2023-04-22T11:10:43.063Z,153297.81
2023-04-22T11:13:13.255Z,153318.19
2023-04-22T11:15:41.693Z,153356.41
2023-04-22T11:18:11.045Z,153493.88
2023-04-22T11:20:37.397Z,153593.22
2023-04-22T11:23:03.986Z,153567.72
2023-04-22T11:25:30.618Z,153496.44
2023-04-22T11:27:57.810Z,153492.63
2023-04-22T11:30:25.834Z,153472.25
2023-04-22T11:32:53.319Z,153351.28
2023-04-22T11:35:24.234Z,153266.06
2023-04-22T11:37:57.065Z,153394.56
2023-04-22T11:40:31.226Z,153393.31
2023-04-22T11:43:00.903Z,153498.97
2023-04-22T11:45:28.773Z,153616.13
2023-04-22T11:47:55.694Z,153814.91
2023-04-22T11:50:36.578Z,153879.84
2023-04-22T11:53:03.931Z,153877.31
2023-04-22T11:55:31.258Z,153841.63
2023-04-22T11:58:11.847Z,153919.44
2023-04-22T12:00:49.280Z,154036.69
2023-04-22T12:03:18.474Z,154055.81
2023-04-22T12:05:49.187Z,154129.81
2023-04-22T12:08:17.924Z,154074.94
2023-04-22T12:11:04.819Z,154111.97
2023-04-22T12:13:37.365Z,154117.09
2023-04-22T12:16:11.882Z,154080.06
2023-04-22T12:18:49.457Z,154191.06
2023-04-22T12:21:20.603Z,154191.06
2023-04-22T12:23:51.959Z,154174.47
2023-04-22T12:26:19.671Z,154192.31
2023-04-22T12:28:46.194Z,154240.75
2023-04-22T12:31:13.515Z,154040.50
2023-04-22T12:33:40.460Z,153958.94
2023-04-22T12:36:08.829Z,153953.88
2023-04-22T12:38:35.013Z,153928.34
2023-04-22T12:41:02.182Z,154032.88
2023-04-22T12:43:28.006Z,154085.16
2023-04-22T12:45:53.869Z,154261.16
2023-04-22T12:48:19.959Z,154356.91
2023-04-22T12:50:45.829Z,154474.28
2023-04-22T12:53:11.711Z,154441.09
2023-04-22T12:55:37.527Z,154483.25
2023-04-22T12:58:03.480Z,154216.53
2023-04-22T13:00:29.641Z,154170.66
2023-04-22T13:02:55.514Z,154063.50
2023-04-22T13:05:21.409Z,153799.59
2023-04-22T13:07:56.282Z,153749.91
2023-04-22T13:10:29.591Z,153691.31
2023-04-22T13:13:00.570Z,153625.03
2023-04-22T13:15:36.177Z,153584.28
2023-04-22T13:18:02.446Z,153625.03
2023-04-22T13:20:28.311Z,153702.81
2023-04-22T13:22:54.356Z,153695.13
2023-04-22T13:25:20.249Z,153856.94
2023-04-22T13:27:46.081Z,153802.13
2023-04-22T13:30:12.349Z,153831.47
2023-04-22T13:32:38.223Z,153832.75
2023-04-22T13:35:04.784Z,153682.38
2023-04-22T13:37:30.726Z,153535.88
2023-04-22T13:39:56.559Z,153409.84
2023-04-22T13:42:22.397Z,153339.84
2023-04-22T13:44:48.224Z,153291.47
2023-04-22T13:47:14.224Z,153286.41
2023-04-22T13:49:40.341Z,153276.19
2023-04-22T13:52:06.329Z,153273.66
2023-04-22T13:54:32.132Z,153197.28
2023-04-22T13:56:58.025Z,153243.13
2023-04-22T13:59:23.857Z,153207.44
2023-04-22T14:01:49.689Z,153201.09
2023-04-22T14:04:15.486Z,153246.97
2023-04-22T14:06:41.485Z,153235.50
2023-04-22T14:09:07.473Z,153188.38
2023-04-22T14:11:33.449Z,153221.50
2023-04-22T14:13:59.471Z,153196.03
2023-04-22T14:16:25.371Z,153196.03
2023-04-22T14:18:51.287Z,153202.38
2023-04-22T14:21:17.100Z,153193.47
2023-04-22T14:23:43.076Z,153215.09
2023-04-22T14:26:10.831Z,153179.47
2023-04-22T14:28:37.896Z,153099.31
2023-04-22T14:31:04.052Z,153073.91
2023-04-22T14:33:30.740Z,153063.72
2023-04-22T14:35:56.656Z,153026.84
2023-04-22T14:38:22.992Z,153044.63
2023-04-22T14:40:49.256Z,153011.63
2023-04-22T14:43:16.497Z,152982.38
2023-04-22T14:45:42.410Z,152959.44
2023-04-22T14:48:08.329Z,152881.88
2023-04-22T14:50:34.477Z,152820.88
2023-04-22T14:53:00.576Z,152771.31
2023-04-22T14:55:27.073Z,152714.13
2023-04-22T14:57:55.997Z,152692.50
2023-04-22T15:00:22.348Z,152673.44
2023-04-22T15:02:48.394Z,152697.63
2023-04-22T15:05:14.427Z,152678.50
2023-04-22T15:07:40.207Z,152698.88
2023-04-22T15:10:06.749Z,152706.53
2023-04-22T15:12:32.625Z,152674.72
2023-04-22T15:14:58.496Z,152669.66
2023-04-22T15:17:24.555Z,152618.81
2023-04-22T15:19:52.542Z,152603.59
2023-04-22T15:22:18.609Z,152607.38
2023-04-22T15:24:44.436Z,152576.88
2023-04-22T15:27:10.321Z,152584.53
2023-04-22T15:29:36.198Z,152528.66
2023-04-22T15:32:02.870Z,152541.38
2023-04-22T15:34:28.861Z,152532.47
2023-04-22T15:36:54.769Z,152513.41
2023-04-22T15:39:20.720Z,152543.91
2023-04-22T15:41:46.459Z,152573.09
2023-04-22T15:44:12.989Z,152569.28
2023-04-22T15:46:38.942Z,152566.75
2023-04-22T15:49:05.231Z,152560.41
2023-04-22T15:51:31.865Z,152585.78
2023-04-22T15:53:57.854Z,152584.53
2023-04-22T15:56:24.738Z,152571.81
2023-04-22T15:58:51.480Z,152496.91
2023-04-22T16:01:20.116Z,152468.94
2023-04-22T16:03:47.671Z,152482.94
2023-04-22T16:06:13.747Z,152418.19
2023-04-22T16:08:39.730Z,152438.50
2023-04-22T16:11:05.835Z,152373.69
2023-04-22T16:13:31.788Z,152408.03
2023-04-22T16:15:57.603Z,152390.19
2023-04-22T16:18:23.865Z,152415.69
2023-04-22T16:20:49.835Z,152457.56
2023-04-22T16:23:15.925Z,152444.84
2023-04-22T16:25:41.789Z,152481.66
2023-04-22T16:28:09.652Z,152485.47
2023-04-22T16:30:36.241Z,152521.00
2023-04-22T16:33:02.302Z,152479.13
2023-04-22T16:35:29.154Z,152531.19
2023-04-22T16:37:54.947Z,152515.94
2023-04-22T16:40:20.806Z,152532.47
2023-04-22T16:42:46.596Z,152524.84
2023-04-22T16:45:12.596Z,152541.38
2023-04-22T16:47:38.889Z,152495.63
2023-04-22T16:50:05.907Z,152500.69
2023-04-22T16:52:31.849Z,152504.50
2023-04-22T16:54:57.794Z,152496.91
2023-04-22T16:57:26.701Z,152479.13
2023-04-22T16:59:52.759Z,152501.97
2023-04-22T17:02:18.733Z,152501.97
2023-04-22T17:04:44.748Z,152428.34
2023-04-22T17:07:10.685Z,152441.03
2023-04-22T17:09:36.609Z,152438.50
2023-04-22T17:12:02.600Z,152394.00
2023-04-22T17:14:29.064Z,152404.19
2023-04-22T17:16:54.892Z,152396.53
2023-04-22T17:19:21.198Z,152350.88
2023-04-22T17:21:47.038Z,152350.88
2023-04-22T17:24:12.915Z,152410.56
2023-04-22T17:26:39.077Z,152373.69
2023-04-22T17:29:05.161Z,152344.53
2023-04-22T17:31:32.684Z,152330.56
2023-04-22T17:33:58.596Z,152320.38
2023-04-22T17:36:24.618Z,152310.28
2023-04-22T17:38:50.866Z,152265.81
2023-04-22T17:41:17.842Z,152330.56
2023-04-22T17:43:43.911Z,152270.94
2023-04-22T17:46:09.949Z,152225.22
2023-04-22T17:48:36.031Z,152204.94
2023-04-22T17:51:04.587Z,152174.47
2023-04-22T17:53:30.536Z,152166.88
2023-04-22T17:55:56.388Z,152174.47
2023-04-22T17:58:22.282Z,152140.22
2023-04-22T18:00:48.149Z,152137.69
2023-04-22T18:03:14.073Z,152144.00
2023-04-22T18:05:42.550Z,152133.91
2023-04-22T18:08:10.111Z,152125.00
2023-04-22T18:10:36.977Z,152155.44
2023-04-22T18:13:03.066Z,152137.69
2023-04-22T18:15:28.915Z,152080.56
2023-04-22T18:17:54.854Z,152043.81
2023-04-22T18:20:20.875Z,152045.06
2023-04-22T18:22:48.568Z,152003.22
2023-04-22T18:25:15.298Z,152012.09
2023-04-22T18:27:41.194Z,152037.47
2023-04-22T18:30:07.532Z,152027.31
2023-04-22T18:32:33.861Z,152040.00
2023-04-22T18:35:04.605Z,152003.22
2023-04-22T18:37:33.732Z,151977.84
2023-04-22T18:40:00.153Z,151956.31
2023-04-22T18:42:26.128Z,151947.44
2023-04-22T18:44:52.528Z,151909.38
2023-04-22T18:47:19.191Z,151938.56
2023-04-22T18:49:45.487Z,151892.94
2023-04-22T18:52:12.005Z,151903.06
2023-04-22T18:54:37.927Z,151919.53
2023-04-22T18:57:04.217Z,151895.47
2023-04-22T18:59:30.383Z,151875.19
2023-04-22T19:10:06.333Z,151873.94
2023-04-22T19:12:32.612Z,151896.75
2023-04-22T19:15:01.458Z,151862.50
2023-04-22T19:17:28.256Z,151827.00
2023-04-22T19:19:54.601Z,151829.53
2023-04-22T19:22:21.199Z,151833.34
2023-04-22T19:24:47.865Z,151796.59
2023-04-22T19:27:14.369Z,151787.75
2023-04-22T19:29:41.839Z,151823.22
2023-04-22T19:32:10.142Z,151797.84
2023-04-22T19:34:36.858Z,151805.47
2023-04-22T19:37:03.972Z,151799.13
2023-04-22T19:47:01.125Z,151794.06
2023-04-22T19:49:27.944Z,151781.38
2023-04-22T19:51:56.058Z,151797.84
2023-04-22T19:54:24.233Z,151802.97
2023-04-22T19:56:51.070Z,151834.59
2023-04-22T19:59:17.870Z,151825.75
2023-04-22T20:01:44.122Z,151789.00
2023-04-22T20:04:10.555Z,151815.59
2023-04-22T20:06:37.050Z,151844.75
2023-04-22T20:09:04.791Z,151846.03
2023-04-22T20:11:31.963Z,151794.06
2023-04-22T20:13:59.316Z,151787.75
2023-04-22T20:16:26.182Z,151786.47
2023-04-22T20:18:52.802Z,151751.00
2023-04-22T20:21:19.699Z,151781.38
2023-04-22T20:23:47.445Z,151790.25
2023-04-22T20:26:18.138Z,151782.63
2023-04-22T20:28:45.849Z,151767.47
2023-04-22T20:31:13.227Z,151742.06
2023-04-22T20:33:39.961Z,151777.59
2023-04-22T20:36:06.882Z,151773.78
2023-04-22T20:38:37.056Z,151740.78
2023-04-22T20:41:05.031Z,151753.53
2023-04-22T20:43:32.139Z,151742.06
2023-04-22T20:45:58.979Z,151733.22
2023-04-22T20:48:25.246Z,151724.31
2023-04-22T20:50:51.568Z,151715.47
2023-04-22T20:53:17.475Z,151721.78
2023-04-22T20:55:43.343Z,151735.72
2023-04-22T20:58:09.897Z,151748.47
2023-04-22T21:00:35.986Z,151753.53
2023-04-22T21:03:03.732Z,151757.31
2023-04-22T21:05:30.664Z,151764.91
2023-04-22T21:07:59.425Z,151753.53
2023-04-22T21:10:26.134Z,151783.94
2023-04-22T21:12:53.951Z,151770.00
2023-04-22T21:15:20.044Z,151775.06
2023-04-22T21:17:51.171Z,151715.47
2023-04-22T21:20:18.998Z,151709.09
2023-04-22T21:22:45.781Z,151705.31
2023-04-22T21:25:20.173Z,151695.19
2023-04-22T21:27:46.647Z,151643.25
2023-04-22T21:30:13.157Z,151666.03
2023-04-22T21:32:40.698Z,151693.94
2023-04-22T21:35:07.220Z,151671.09
2023-04-22T21:37:33.874Z,151631.84
2023-04-22T21:39:59.858Z,151555.84
2023-04-22T21:42:25.655Z,151550.81
2023-04-22T21:44:51.477Z,151511.50
2023-04-22T21:47:17.449Z,151516.63
2023-04-22T21:49:45.113Z,151536.88
2023-04-22T21:52:11.194Z,151552.06
2023-04-22T21:54:37.050Z,151572.34
2023-04-22T21:57:03.071Z,151552.06
2023-04-22T21:59:28.937Z,151555.84
2023-04-22T22:01:54.927Z,151531.81
2023-04-22T22:04:20.988Z,151501.41
2023-04-22T22:06:48.156Z,151501.41
2023-04-22T22:09:14.008Z,151525.47
2023-04-22T22:11:39.899Z,151535.59
2023-04-22T22:14:05.744Z,151526.72
2023-04-22T22:16:32.479Z,151519.13
2023-04-22T22:18:58.443Z,151543.19
2023-04-22T22:21:24.402Z,151554.59
2023-04-22T22:23:50.281Z,151598.91
2023-04-22T22:26:16.113Z,151565.97
2023-04-22T22:28:42.896Z,151544.44
2023-04-22T22:31:08.813Z,151552.06
2023-04-22T22:33:34.689Z,151529.25
2023-04-22T22:36:00.716Z,151527.97
2023-04-22T22:38:26.639Z,151531.81
2023-04-22T22:40:52.498Z,151524.19
2023-04-22T22:43:18.663Z,151505.19
2023-04-22T22:45:45.102Z,151522.94
2023-04-22T22:48:11.089Z,151531.81
2023-04-22T22:50:37.084Z,151514.09
2023-04-22T22:53:03.044Z,151533.06
2023-04-22T22:55:28.851Z,151497.63
2023-04-22T22:57:54.812Z,151503.94
2023-04-22T23:00:20.864Z,151445.72
2023-04-22T23:02:47.196Z,151452.03
2023-04-22T23:05:13.316Z,151429.25
2023-04-22T23:07:39.363Z,151446.97
2023-04-22T23:10:06.886Z,151476.06
2023-04-22T23:12:33.758Z,151458.34
2023-04-22T23:14:59.866Z,151454.53
2023-04-22T23:17:26.885Z,151450.75
2023-04-22T23:19:53.910Z,151476.06
2023-04-22T23:22:20.667Z,151438.09
2023-04-22T23:24:47.050Z,151440.63
2023-04-22T23:27:13.357Z,151435.56
2023-04-22T23:29:39.472Z,151426.72
2023-04-22T23:32:07.488Z,151401.38
2023-04-22T23:34:35.997Z,151431.78
2023-04-22T23:37:05.281Z,151377.34
2023-04-22T23:39:32.042Z,151349.44
2023-04-22T23:41:58.115Z,151368.47
2023-04-22T23:44:24.001Z,151352.00
2023-04-22T23:46:50.058Z,151352.00
2023-04-22T23:49:16.094Z,151302.63
2023-04-22T23:51:42.077Z,151336.81
2023-04-22T23:54:08.227Z,151344.38
2023-04-22T23:56:34.415Z,151286.19
2023-04-22T23:59:00.625Z,151301.38
